createdAt,value
2019-05-15T00:01:08.490Z,7.73
2019-05-15T00:02:10.607Z,7.70
2019-05-15T00:04:09.481Z,7.73
2019-05-15T00:05:09.484Z,7.63
2019-05-15T00:07:11.638Z,7.67
2019-05-15T00:08:11.573Z,7.62
2019-05-15T00:10:13.595Z,7.54
2019-05-15T00:11:13.624Z,7.55
2019-05-15T00:13:15.669Z,7.54
2019-05-15T00:14:18.113Z,7.48
2019-05-15T00:16:18.147Z,7.52
2019-05-15T00:17:19.170Z,7.45
2019-05-15T00:19:19.974Z,7.41
2019-05-15T00:20:20.300Z,7.37
2019-05-15T00:22:22.105Z,7.39
2019-05-15T00:23:22.130Z,7.39
2019-05-15T00:25:24.177Z,7.37
2019-05-15T00:26:24.201Z,7.36
2019-05-15T00:28:27.985Z,7.36
2019-05-15T00:29:28.737Z,7.26
2019-05-15T00:31:18.735Z,7.27
2019-05-15T00:32:18.667Z,7.26
2019-05-15T00:34:20.446Z,7.19
2019-05-15T00:35:20.470Z,7.18
2019-05-15T00:37:22.618Z,7.26
2019-05-15T00:38:22.642Z,7.16
2019-05-15T00:40:24.859Z,7.23
2019-05-15T00:41:24.888Z,7.08
2019-05-15T00:43:29.147Z,7.07
2019-05-15T00:44:28.103Z,7.11
2019-05-15T00:46:30.057Z,7.05
2019-05-15T00:47:30.080Z,7.08
2019-05-15T00:49:32.181Z,7.07
2019-05-15T00:50:32.175Z,7.01
2019-05-15T00:52:34.249Z,6.97
2019-05-15T00:53:34.274Z,6.89
2019-05-15T00:55:38.021Z,6.86
2019-05-15T00:56:36.403Z,6.91
2019-05-15T00:58:28.591Z,6.90
2019-05-15T00:59:29.935Z,6.97
2019-05-15T01:01:21.568Z,6.89
2019-05-15T01:02:21.590Z,6.87
2019-05-15T01:04:23.639Z,6.83
2019-05-15T01:05:23.662Z,6.82
2019-05-15T01:07:28.081Z,6.72
2019-05-15T01:08:25.768Z,6.73
2019-05-15T01:10:28.663Z,6.75
2019-05-15T01:11:28.473Z,6.73
2019-05-15T01:13:30.148Z,6.63
2019-05-15T01:14:30.173Z,6.73
2019-05-15T01:16:32.421Z,6.71
2019-05-15T01:17:32.446Z,6.69
2019-05-15T01:19:34.590Z,6.60
2019-05-15T01:20:34.614Z,6.65
2019-05-15T01:22:39.044Z,6.63
2019-05-15T01:23:38.817Z,6.63
2019-05-15T01:25:39.285Z,6.57
2019-05-15T01:26:38.784Z,6.53
2019-05-15T01:28:31.921Z,6.55
2019-05-15T01:29:43.802Z,6.53
2019-05-15T01:31:24.065Z,6.51
2019-05-15T01:32:24.085Z,6.51
2019-05-15T01:34:26.206Z,6.43
2019-05-15T01:35:28.570Z,6.42
2019-05-15T01:37:28.405Z,6.36
2019-05-15T01:38:28.424Z,6.40
2019-05-15T01:40:30.494Z,6.43
2019-05-15T01:41:30.518Z,6.28
2019-05-15T01:43:32.679Z,6.27
2019-05-15T01:44:32.744Z,6.39
2019-05-15T01:46:34.787Z,6.30
2019-05-15T01:47:34.809Z,6.28
2019-05-15T01:49:38.389Z,6.28
2019-05-15T01:50:38.866Z,6.33
2019-05-15T01:52:30.231Z,6.17
2019-05-15T01:53:30.220Z,6.25
2019-05-15T01:55:32.319Z,6.19
2019-05-15T01:56:32.337Z,6.21
2019-05-15T01:58:25.473Z,6.10
2019-05-15T01:59:25.489Z,6.13
2019-05-15T02:01:19.328Z,6.20
2019-05-15T02:02:18.841Z,6.08
2019-05-15T02:04:12.009Z,6.03
2019-05-15T02:05:12.022Z,6.03
2019-05-15T02:07:05.261Z,6.11
2019-05-15T02:08:05.280Z,6.03
2019-05-15T02:09:58.538Z,6.02
2019-05-15T02:10:58.976Z,6.08
2019-05-15T02:12:51.469Z,6.03
2019-05-15T02:13:51.491Z,6.10
2019-05-15T02:15:55.529Z,6.05
2019-05-15T02:16:55.556Z,5.96
2019-05-15T02:18:48.966Z,6.01
2019-05-15T02:19:48.719Z,5.99
2019-05-15T02:21:42.116Z,5.95
2019-05-15T02:22:42.705Z,6.02
2019-05-15T02:24:34.084Z,5.98
2019-05-15T02:25:34.106Z,5.93
2019-05-15T02:26:34.134Z,5.93
2019-05-15T02:27:34.163Z,5.95
2019-05-15T02:28:34.186Z,5.93
2019-05-15T02:29:34.215Z,5.96
2019-05-15T02:30:34.551Z,5.84
2019-05-15T02:31:34.270Z,5.88
2019-05-15T02:32:34.297Z,5.88
2019-05-15T02:33:34.327Z,5.90
2019-05-15T02:34:34.354Z,5.92
2019-05-15T02:35:34.381Z,5.83
2019-05-15T02:36:34.417Z,5.83
2019-05-15T02:37:34.435Z,5.85
2019-05-15T02:38:34.493Z,5.87
2019-05-15T02:39:34.486Z,5.85
2019-05-15T02:40:34.518Z,5.83
2019-05-15T02:41:34.555Z,5.87
2019-05-15T02:42:34.572Z,5.88
2019-05-15T02:43:34.601Z,5.85
2019-05-15T02:44:34.644Z,5.88
2019-05-15T02:45:37.740Z,5.85
2019-05-15T02:46:34.680Z,5.85
2019-05-15T02:47:34.711Z,5.78
2019-05-15T02:48:34.737Z,5.73
2019-05-15T02:49:34.763Z,5.74
2019-05-15T02:50:34.790Z,5.75
2019-05-15T02:51:34.823Z,5.65
2019-05-15T02:52:34.846Z,5.78
2019-05-15T02:53:34.872Z,5.77
2019-05-15T02:54:34.899Z,5.77
2019-05-15T02:55:34.927Z,5.80
2019-05-15T02:56:34.954Z,5.74
2019-05-15T02:57:34.980Z,5.75
2019-05-15T02:58:35.008Z,5.78
2019-05-15T02:59:35.044Z,5.69
2019-05-15T03:00:43.939Z,5.65
2019-05-15T03:01:35.091Z,5.75
2019-05-15T03:02:35.118Z,5.67
2019-05-15T03:03:35.146Z,5.65
2019-05-15T03:04:35.172Z,5.65
2019-05-15T03:05:35.234Z,5.66
2019-05-15T03:06:35.226Z,5.63
2019-05-15T03:07:35.254Z,5.65
2019-05-15T03:08:35.281Z,5.65
2019-05-15T03:09:35.315Z,5.60
2019-05-15T03:10:35.334Z,5.69
2019-05-15T03:11:35.361Z,5.66
2019-05-15T03:12:35.391Z,5.62
2019-05-15T03:13:35.417Z,5.67
2019-05-15T03:14:35.444Z,5.66
2019-05-15T03:15:35.472Z,5.67
2019-05-15T03:16:35.498Z,5.66
2019-05-15T03:17:35.529Z,5.65
2019-05-15T03:18:35.556Z,5.66
2019-05-15T03:19:39.000Z,5.62
2019-05-15T03:20:38.628Z,5.60
2019-05-15T03:21:38.660Z,5.66
2019-05-15T03:22:35.687Z,5.62
2019-05-15T03:23:35.689Z,5.62
2019-05-15T03:24:35.714Z,5.62
2019-05-15T03:25:35.744Z,5.60
2019-05-15T03:26:39.188Z,5.65
2019-05-15T03:27:39.169Z,5.65
2019-05-15T03:28:38.765Z,5.62
2019-05-15T03:29:35.851Z,5.67
2019-05-15T03:31:06.486Z,5.69
2019-05-15T03:31:56.671Z,5.70
2019-05-15T03:33:38.777Z,5.73
2019-05-15T03:34:44.583Z,5.66
2019-05-15T03:35:41.943Z,5.65
2019-05-15T03:36:36.041Z,5.60
2019-05-15T03:37:39.503Z,5.65
2019-05-15T03:38:39.117Z,5.65
2019-05-15T03:39:39.054Z,5.66
2019-05-15T03:40:39.370Z,5.62
2019-05-15T03:41:39.070Z,5.62
2019-05-15T03:42:39.133Z,5.69
2019-05-15T03:43:39.244Z,5.65
2019-05-15T03:44:39.079Z,5.62
2019-05-15T03:45:39.992Z,5.75
2019-05-15T03:46:39.589Z,5.65
2019-05-15T03:47:39.705Z,5.69
2019-05-15T03:48:39.784Z,5.67
2019-05-15T03:49:39.457Z,5.65
2019-05-15T03:50:39.688Z,5.67
2019-05-15T03:51:40.082Z,5.73
2019-05-15T03:52:39.425Z,5.73
2019-05-15T03:53:39.574Z,5.70
2019-05-15T03:54:39.154Z,5.77
2019-05-15T03:55:40.018Z,5.75
2019-05-15T03:56:39.316Z,5.83
2019-05-15T03:57:40.080Z,5.80
2019-05-15T03:58:39.742Z,5.81
2019-05-15T03:59:39.688Z,5.87
2019-05-15T04:00:39.447Z,5.85
2019-05-15T04:01:41.217Z,5.87
2019-05-15T04:02:39.526Z,5.87
2019-05-15T04:03:38.954Z,5.85
2019-05-15T04:04:38.842Z,5.90
2019-05-15T04:05:38.872Z,5.83
2019-05-15T04:06:39.117Z,5.84
2019-05-15T04:07:39.387Z,5.83
2019-05-15T04:08:39.210Z,5.88
2019-05-15T04:09:38.672Z,5.83
2019-05-15T04:10:40.021Z,5.84
2019-05-15T04:11:38.785Z,5.90
2019-05-15T04:12:40.510Z,5.84
2019-05-15T04:13:39.617Z,5.83
2019-05-15T04:14:39.512Z,5.81
2019-05-15T04:15:39.483Z,5.93
2019-05-15T04:16:39.123Z,5.96
2019-05-15T04:17:40.130Z,5.92
2019-05-15T04:18:39.651Z,5.99
2019-05-15T04:19:39.156Z,5.96
2019-05-15T04:20:40.393Z,5.98
2019-05-15T04:21:41.515Z,5.99
2019-05-15T04:22:40.028Z,5.99
2019-05-15T04:23:39.137Z,6.05
2019-05-15T04:24:39.420Z,6.08
2019-05-15T04:25:39.169Z,6.02
2019-05-15T04:26:39.385Z,6.06
2019-05-15T04:27:39.131Z,6.03
2019-05-15T04:28:41.259Z,6.06
2019-05-15T04:29:39.710Z,6.08
2019-05-15T04:30:39.181Z,6.10
2019-05-15T04:31:51.756Z,6.11
2019-05-15T04:32:39.883Z,6.05
2019-05-15T04:33:39.988Z,6.05
2019-05-15T04:34:39.678Z,6.10
2019-05-15T04:35:40.247Z,6.17
2019-05-15T04:36:39.628Z,6.21
2019-05-15T04:37:40.852Z,6.20
2019-05-15T04:38:39.261Z,6.27
2019-05-15T04:39:40.069Z,6.25
2019-05-15T04:40:39.614Z,6.32
2019-05-15T04:41:39.231Z,6.24
2019-05-15T04:42:39.891Z,6.25
2019-05-15T04:43:41.341Z,6.28
2019-05-15T04:44:39.522Z,6.35
2019-05-15T04:45:39.173Z,6.33
2019-05-15T04:46:39.189Z,6.35
2019-05-15T04:47:39.623Z,6.43
2019-05-15T04:48:39.887Z,6.40
2019-05-15T04:49:39.393Z,6.43
2019-05-15T04:50:40.017Z,6.35
2019-05-15T04:51:39.100Z,6.35
2019-05-15T04:52:39.399Z,6.46
2019-05-15T04:53:39.435Z,6.50
2019-05-15T04:54:40.263Z,6.46
2019-05-15T04:55:40.294Z,6.55
2019-05-15T04:56:39.956Z,6.55
2019-05-15T04:57:40.182Z,6.55
2019-05-15T04:58:39.500Z,6.57
2019-05-15T04:59:38.998Z,6.60
2019-05-15T05:00:39.991Z,6.58
2019-05-15T05:01:40.268Z,6.54
2019-05-15T05:02:40.153Z,6.63
2019-05-15T05:03:39.291Z,6.57
2019-05-15T05:04:38.903Z,6.68
2019-05-15T05:05:38.891Z,6.65
2019-05-15T05:06:38.918Z,6.73
2019-05-15T05:07:39.170Z,6.76
2019-05-15T05:08:39.821Z,6.71
2019-05-15T05:09:39.065Z,6.81
2019-05-15T05:10:39.554Z,6.94
2019-05-15T05:11:38.629Z,6.99
2019-05-15T05:12:41.789Z,6.91
2019-05-15T05:13:39.355Z,6.97
2019-05-15T05:14:39.234Z,6.82
2019-05-15T05:15:39.056Z,6.93
2019-05-15T05:16:39.494Z,7.01
2019-05-15T05:17:39.387Z,7.07
2019-05-15T05:18:40.975Z,7.05
2019-05-15T05:19:40.118Z,7.05
2019-05-15T05:20:38.876Z,7.11
2019-05-15T05:21:38.912Z,7.12
2019-05-15T05:22:39.525Z,7.18
2019-05-15T05:23:38.960Z,7.14
2019-05-15T05:24:38.991Z,7.21
2019-05-15T05:25:39.015Z,7.14
2019-05-15T05:26:39.045Z,7.19
2019-05-15T05:27:39.071Z,7.29
2019-05-15T05:28:39.097Z,7.29
2019-05-15T05:29:39.129Z,7.36
2019-05-15T05:30:39.155Z,7.32
2019-05-15T05:31:39.378Z,7.39
2019-05-15T05:32:39.377Z,7.36
2019-05-15T05:33:39.237Z,7.41
2019-05-15T05:34:39.340Z,7.51
2019-05-15T05:35:39.294Z,7.48
2019-05-15T05:36:39.329Z,7.57
2019-05-15T05:37:39.353Z,7.63
2019-05-15T05:38:39.379Z,7.57
2019-05-15T05:39:39.642Z,7.73
2019-05-15T05:40:39.433Z,7.62
2019-05-15T05:41:39.461Z,7.63
2019-05-15T05:42:39.489Z,7.77
2019-05-15T05:43:39.525Z,7.74
2019-05-15T05:44:42.667Z,7.79
2019-05-15T05:45:39.574Z,7.85
2019-05-15T05:46:39.933Z,7.91
2019-05-15T05:47:39.625Z,7.89
2019-05-15T05:48:39.655Z,7.91
2019-05-15T05:49:39.684Z,8.00
2019-05-15T05:50:49.140Z,8.09
2019-05-15T05:52:41.727Z,8.20
2019-05-15T05:53:41.751Z,8.17
2019-05-15T05:55:43.900Z,8.20
2019-05-15T05:56:43.924Z,8.21
2019-05-15T05:58:46.076Z,8.24
2019-05-15T05:59:46.097Z,8.25
2019-05-15T06:01:43.653Z,8.32
2019-05-15T06:02:46.890Z,8.37
2019-05-15T06:04:40.280Z,8.49
2019-05-15T06:05:40.302Z,8.43
2019-05-15T06:07:42.462Z,8.49
2019-05-15T06:08:42.491Z,8.64
2019-05-15T06:10:44.617Z,8.58
2019-05-15T06:11:44.640Z,8.65
2019-05-15T06:13:50.070Z,8.68
2019-05-15T06:14:48.495Z,8.70
2019-05-15T06:16:48.956Z,8.80
2019-05-15T06:17:48.976Z,8.75
2019-05-15T06:19:51.127Z,8.88
2019-05-15T06:20:51.158Z,8.83
2019-05-15T06:22:53.440Z,8.86
2019-05-15T06:23:55.922Z,8.96
2019-05-15T06:25:45.335Z,9.08
2019-05-15T06:26:45.361Z,9.08
2019-05-15T06:28:39.415Z,9.10
2019-05-15T06:29:37.933Z,9.27
2019-05-15T06:31:29.619Z,9.26
2019-05-15T06:32:29.634Z,9.44
2019-05-15T06:34:31.988Z,9.45
2019-05-15T06:35:31.989Z,9.53
2019-05-15T06:37:23.923Z,9.70
2019-05-15T06:38:23.940Z,9.77
2019-05-15T06:40:28.732Z,9.99
2019-05-15T06:41:28.473Z,9.93
2019-05-15T06:43:19.131Z,9.96
2019-05-15T06:44:18.757Z,10.04
2019-05-15T06:46:10.162Z,10.17
2019-05-15T06:47:10.187Z,10.17
2019-05-15T06:49:12.831Z,10.36
2019-05-15T06:50:12.841Z,10.42
2019-05-15T06:51:12.872Z,10.57
2019-05-15T06:52:12.893Z,10.65
2019-05-15T06:53:12.926Z,10.65
2019-05-15T06:54:12.954Z,10.72
2019-05-15T06:55:12.988Z,10.72
2019-05-15T06:56:13.015Z,10.81
2019-05-15T06:57:13.030Z,10.90
2019-05-15T06:58:13.070Z,10.99
2019-05-15T06:59:13.095Z,11.12
2019-05-15T07:00:13.145Z,11.20
2019-05-15T07:01:13.163Z,11.20
2019-05-15T07:02:13.184Z,11.27
2019-05-15T07:03:21.610Z,11.27
2019-05-15T07:04:13.241Z,11.44
2019-05-15T07:05:13.286Z,11.36
2019-05-15T07:06:13.307Z,11.45
2019-05-15T07:07:13.338Z,11.46
2019-05-15T07:08:13.370Z,11.53
2019-05-15T07:09:13.398Z,11.57
2019-05-15T07:10:13.425Z,11.49
2019-05-15T07:11:13.458Z,11.66
2019-05-15T07:12:13.489Z,11.75
2019-05-15T07:13:13.521Z,11.70
2019-05-15T07:14:13.546Z,11.77
2019-05-15T07:15:13.578Z,11.93
2019-05-15T07:16:13.611Z,11.88
2019-05-15T07:17:13.634Z,11.88
2019-05-15T07:18:13.655Z,11.94
2019-05-15T07:19:13.691Z,11.96
2019-05-15T07:20:13.728Z,12.00
2019-05-15T07:21:13.750Z,12.04
2019-05-15T07:22:13.779Z,12.00
2019-05-15T07:23:13.810Z,12.01
2019-05-15T07:24:13.841Z,12.03
2019-05-15T07:25:13.880Z,12.11
2019-05-15T07:26:13.910Z,12.04
2019-05-15T07:27:13.945Z,12.13
2019-05-15T07:28:13.970Z,12.12
2019-05-15T07:29:13.997Z,12.19
2019-05-15T07:30:14.032Z,12.16
2019-05-15T07:31:14.065Z,12.16
2019-05-15T07:32:14.091Z,12.23
2019-05-15T07:33:14.115Z,12.29
2019-05-15T07:34:14.155Z,12.22
2019-05-15T07:35:14.171Z,12.29
2019-05-15T07:36:14.214Z,12.31
2019-05-15T07:37:14.259Z,12.33
2019-05-15T07:38:14.279Z,12.41
2019-05-15T07:39:14.302Z,12.46
2019-05-15T07:40:14.328Z,12.59
2019-05-15T07:41:14.354Z,12.56
2019-05-15T07:42:14.399Z,12.70
2019-05-15T07:43:14.419Z,12.76
2019-05-15T07:44:14.469Z,12.77
2019-05-15T07:45:14.482Z,12.84
2019-05-15T07:46:14.521Z,12.91
2019-05-15T07:47:14.555Z,12.94
2019-05-15T07:48:14.571Z,12.95
2019-05-15T07:49:14.615Z,13.06
2019-05-15T07:50:14.640Z,13.06
2019-05-15T07:51:14.677Z,13.14
2019-05-15T07:52:14.705Z,13.28
2019-05-15T07:53:14.741Z,13.27
2019-05-15T07:54:14.765Z,13.38
2019-05-15T07:55:14.797Z,13.41
2019-05-15T07:56:14.826Z,13.43
2019-05-15T07:57:14.886Z,13.55
2019-05-15T07:58:14.887Z,13.66
2019-05-15T07:59:14.921Z,13.61
2019-05-15T08:00:14.953Z,13.72
2019-05-15T08:01:14.989Z,13.79
2019-05-15T08:02:15.017Z,13.83
2019-05-15T08:03:15.050Z,13.84
2019-05-15T08:04:26.154Z,13.86
2019-05-15T08:05:15.110Z,13.90
2019-05-15T08:06:15.129Z,13.94
2019-05-15T08:07:15.177Z,13.94
2019-05-15T08:08:15.207Z,14.06
2019-05-15T08:09:15.276Z,14.08
2019-05-15T08:10:15.366Z,14.21
2019-05-15T08:11:20.863Z,14.13
2019-05-15T08:12:15.402Z,14.29
2019-05-15T08:13:15.400Z,14.30
2019-05-15T08:14:15.443Z,14.31
2019-05-15T08:15:15.449Z,14.30
2019-05-15T08:16:17.957Z,14.41
2019-05-15T08:17:19.037Z,14.41
2019-05-15T08:18:17.835Z,14.49
2019-05-15T08:19:18.177Z,14.56
2019-05-15T08:20:15.588Z,14.57
2019-05-15T08:21:15.606Z,14.67
2019-05-15T08:22:18.177Z,14.69
2019-05-15T08:23:15.670Z,14.78
2019-05-15T08:24:15.719Z,14.83
2019-05-15T08:25:30.161Z,14.86
2019-05-15T08:26:17.660Z,14.94
2019-05-15T08:27:15.796Z,15.00
2019-05-15T08:28:15.835Z,14.94
2019-05-15T08:29:19.311Z,15.11
2019-05-15T08:30:18.206Z,15.11
2019-05-15T08:31:18.128Z,15.16
2019-05-15T08:32:15.982Z,15.19
2019-05-15T08:33:17.845Z,15.34
2019-05-15T08:34:16.371Z,15.34
2019-05-15T08:35:18.911Z,15.41
2019-05-15T08:36:18.180Z,15.49
2019-05-15T08:37:18.187Z,15.53
2019-05-15T08:38:18.252Z,15.59
2019-05-15T08:39:16.196Z,15.67
2019-05-15T08:40:17.839Z,15.74
2019-05-15T08:41:18.363Z,15.76
2019-05-15T08:42:18.677Z,15.86
2019-05-15T08:43:18.387Z,15.98
2019-05-15T08:44:18.551Z,16.07
2019-05-15T08:45:18.687Z,16.08
2019-05-15T08:46:18.573Z,16.18
2019-05-15T08:47:19.198Z,16.26
2019-05-15T08:48:18.441Z,16.26
2019-05-15T08:49:16.514Z,16.40
2019-05-15T08:50:18.306Z,16.44
2019-05-15T08:51:19.078Z,16.54
2019-05-15T08:52:18.736Z,16.54
2019-05-15T08:53:18.980Z,16.67
2019-05-15T08:54:18.363Z,16.69
2019-05-15T08:55:16.722Z,16.81
2019-05-15T08:56:19.169Z,16.87
2019-05-15T08:57:20.236Z,16.87
2019-05-15T08:58:20.301Z,16.95
2019-05-15T08:59:18.770Z,17.03
2019-05-15T09:00:18.576Z,17.03
2019-05-15T09:01:18.063Z,17.06
2019-05-15T09:02:18.599Z,17.21
2019-05-15T09:03:18.306Z,17.18
2019-05-15T09:04:27.825Z,17.21
2019-05-15T09:05:18.715Z,17.22
2019-05-15T09:06:20.664Z,17.25
2019-05-15T09:07:18.056Z,17.40
2019-05-15T09:08:19.203Z,17.55
2019-05-15T09:09:18.252Z,17.57
2019-05-15T09:10:18.352Z,17.63
2019-05-15T09:11:19.238Z,17.79
2019-05-15T09:12:18.880Z,17.83
2019-05-15T09:13:18.836Z,17.94
2019-05-15T09:14:18.488Z,17.98
2019-05-15T09:15:18.434Z,18.09
2019-05-15T09:16:18.545Z,18.09
2019-05-15T09:17:18.137Z,18.10
2019-05-15T09:18:20.147Z,18.07
2019-05-15T09:19:18.442Z,18.16
2019-05-15T09:20:19.468Z,18.21
2019-05-15T09:21:19.189Z,18.11
2019-05-15T09:22:18.751Z,18.17
2019-05-15T09:23:19.467Z,18.20
2019-05-15T09:24:19.856Z,18.20
2019-05-15T09:25:19.401Z,18.17
2019-05-15T09:26:19.412Z,18.09
2019-05-15T09:27:18.452Z,18.02
2019-05-15T09:28:18.964Z,18.01
2019-05-15T09:29:18.373Z,18.04
2019-05-15T09:30:18.403Z,17.96
2019-05-15T09:31:19.260Z,18.01
2019-05-15T09:32:19.139Z,17.98
2019-05-15T09:33:20.161Z,17.98
2019-05-15T09:34:18.678Z,18.01
2019-05-15T09:35:18.702Z,17.96
2019-05-15T09:36:20.167Z,17.99
2019-05-15T09:37:18.192Z,18.05
2019-05-15T09:38:18.659Z,18.16
2019-05-15T09:39:18.452Z,18.20
2019-05-15T09:40:18.713Z,18.28
2019-05-15T09:41:18.262Z,18.35
2019-05-15T09:42:18.310Z,18.38
2019-05-15T09:43:18.475Z,18.47
2019-05-15T09:44:21.614Z,18.46
2019-05-15T09:45:18.403Z,18.59
2019-05-15T09:46:18.696Z,18.69
2019-05-15T09:47:18.973Z,18.66
2019-05-15T09:48:19.593Z,18.74
2019-05-15T09:49:18.536Z,18.82
2019-05-15T09:50:19.277Z,18.79
2019-05-15T09:51:18.625Z,18.84
2019-05-15T09:52:22.487Z,18.89
2019-05-15T09:53:19.227Z,19.07
2019-05-15T09:54:19.361Z,19.10
2019-05-15T09:55:18.742Z,19.23
2019-05-15T09:56:18.908Z,19.40
2019-05-15T09:57:18.991Z,19.31
2019-05-15T09:58:20.435Z,19.46
2019-05-15T09:59:18.942Z,19.62
2019-05-15T10:00:19.130Z,19.62
2019-05-15T10:01:19.753Z,19.75
2019-05-15T10:02:19.244Z,19.76
2019-05-15T10:03:19.181Z,19.83
2019-05-15T10:04:19.264Z,19.94
2019-05-15T10:05:19.092Z,19.92
2019-05-15T10:06:20.595Z,19.94
2019-05-15T10:07:19.410Z,20.05
2019-05-15T10:08:21.266Z,20.02
2019-05-15T10:09:19.230Z,20.02
2019-05-15T10:10:19.377Z,20.00
2019-05-15T10:11:19.908Z,19.90
2019-05-15T10:12:19.339Z,20.02
2019-05-15T10:13:19.378Z,20.05
2019-05-15T10:14:19.686Z,20.04
2019-05-15T10:15:19.450Z,20.04
2019-05-15T10:16:19.970Z,20.01
2019-05-15T10:17:19.515Z,19.95
2019-05-15T10:18:19.558Z,20.00
2019-05-15T10:19:19.590Z,20.04
2019-05-15T10:20:19.622Z,19.90
2019-05-15T10:21:19.670Z,19.94
2019-05-15T10:22:19.690Z,19.92
2019-05-15T10:23:20.077Z,20.07
2019-05-15T10:24:19.772Z,20.00
2019-05-15T10:25:19.796Z,20.04
2019-05-15T10:26:19.831Z,20.19
2019-05-15T10:27:19.865Z,20.17
2019-05-15T10:28:19.898Z,20.16
2019-05-15T10:29:19.931Z,20.15
2019-05-15T10:30:19.968Z,20.19
2019-05-15T10:31:20.012Z,20.16
2019-05-15T10:32:20.041Z,20.15
2019-05-15T10:33:20.597Z,20.17
2019-05-15T10:34:20.122Z,20.17
2019-05-15T10:35:27.748Z,20.23
2019-05-15T10:36:20.186Z,20.12
2019-05-15T10:37:20.210Z,20.16
2019-05-15T10:38:20.252Z,20.02
2019-05-15T10:39:20.295Z,20.01
2019-05-15T10:40:20.659Z,20.02
2019-05-15T10:41:20.361Z,19.87
2019-05-15T10:42:20.403Z,19.75
2019-05-15T10:43:21.076Z,19.70
2019-05-15T10:44:20.468Z,19.64
2019-05-15T10:45:20.506Z,19.72
2019-05-15T10:46:20.536Z,19.67
2019-05-15T10:47:20.573Z,19.58
2019-05-15T10:48:20.604Z,19.50
2019-05-15T10:49:20.646Z,19.57
2019-05-15T10:50:20.682Z,19.50
2019-05-15T10:51:20.714Z,19.45
2019-05-15T10:52:20.756Z,19.38
2019-05-15T10:53:20.831Z,19.25
2019-05-15T10:54:20.828Z,19.27
2019-05-15T10:55:20.860Z,19.16
2019-05-15T10:56:20.894Z,19.13
2019-05-15T10:57:20.921Z,19.12
2019-05-15T10:58:21.918Z,19.01
2019-05-15T10:59:20.995Z,18.89
2019-05-15T11:00:21.043Z,18.84
2019-05-15T11:01:21.069Z,18.89
2019-05-15T11:02:21.104Z,18.87
2019-05-15T11:03:21.136Z,18.82
2019-05-15T11:04:21.173Z,18.82
2019-05-15T11:05:21.207Z,18.83
2019-05-15T11:06:21.242Z,18.83
2019-05-15T11:07:21.349Z,18.78
2019-05-15T11:08:21.367Z,18.84
2019-05-15T11:09:21.357Z,18.79
2019-05-15T11:10:21.394Z,18.86
2019-05-15T11:11:21.451Z,18.86
2019-05-15T11:12:21.489Z,18.90
2019-05-15T11:13:21.546Z,18.87
2019-05-15T11:14:21.522Z,18.89
2019-05-15T11:15:21.551Z,18.91
2019-05-15T11:16:21.591Z,18.89
2019-05-15T11:17:21.621Z,18.79
2019-05-15T11:18:21.659Z,18.83
2019-05-15T11:19:21.701Z,18.78
2019-05-15T11:20:21.735Z,18.78
2019-05-15T11:21:21.766Z,18.72
2019-05-15T11:22:21.812Z,18.75
2019-05-15T11:23:21.836Z,18.66
2019-05-15T11:24:21.873Z,18.59
2019-05-15T11:25:21.935Z,18.64
2019-05-15T11:26:22.210Z,18.65
2019-05-15T11:27:21.978Z,18.59
2019-05-15T11:28:22.016Z,18.54
2019-05-15T11:29:22.059Z,18.56
2019-05-15T11:30:22.082Z,18.59
2019-05-15T11:31:24.771Z,18.46
2019-05-15T11:32:22.152Z,18.49
2019-05-15T11:33:22.197Z,18.42
2019-05-15T11:34:22.220Z,18.47
2019-05-15T11:35:22.259Z,18.41
2019-05-15T11:36:22.302Z,18.39
2019-05-15T11:37:22.330Z,18.29
2019-05-15T11:38:22.363Z,18.31
2019-05-15T11:39:22.388Z,18.25
2019-05-15T11:40:22.424Z,18.25
2019-05-15T11:41:22.471Z,18.25
2019-05-15T11:42:22.505Z,18.17
2019-05-15T11:43:22.574Z,18.16
2019-05-15T11:44:22.563Z,18.20
2019-05-15T11:45:22.609Z,18.21
2019-05-15T11:46:25.669Z,18.21
2019-05-15T11:47:22.693Z,18.23
2019-05-15T11:48:22.718Z,18.29
2019-05-15T11:49:22.776Z,18.29
2019-05-15T11:50:22.781Z,18.29
2019-05-15T11:51:22.808Z,18.46
2019-05-15T11:52:22.858Z,18.59
2019-05-15T11:53:22.888Z,18.59
2019-05-15T11:54:22.923Z,18.62
2019-05-15T11:55:22.951Z,18.71
2019-05-15T11:56:22.999Z,18.75
2019-05-15T11:57:37.326Z,18.87
2019-05-15T11:58:23.062Z,18.87
2019-05-15T11:59:23.097Z,18.91
2019-05-15T12:00:27.051Z,19.02
2019-05-15T12:01:23.187Z,19.02
2019-05-15T12:02:23.198Z,19.06
2019-05-15T12:03:24.993Z,19.13
2019-05-15T12:04:30.136Z,19.21
2019-05-15T12:05:23.301Z,19.28
2019-05-15T12:06:23.340Z,19.30
2019-05-15T12:07:23.369Z,19.40
2019-05-15T12:08:23.409Z,19.43
2019-05-15T12:09:23.452Z,19.50
2019-05-15T12:10:23.484Z,19.57
2019-05-15T12:11:33.420Z,19.58
2019-05-15T12:12:23.549Z,19.58
2019-05-15T12:13:23.584Z,19.58
2019-05-15T12:14:23.616Z,19.62
2019-05-15T12:15:23.668Z,19.62
2019-05-15T12:16:23.689Z,19.67
2019-05-15T12:17:23.718Z,19.67
2019-05-15T12:18:23.755Z,19.64
2019-05-15T12:19:23.795Z,19.55
2019-05-15T12:20:23.822Z,19.57
2019-05-15T12:21:23.864Z,19.45
2019-05-15T12:22:23.887Z,19.43
2019-05-15T12:23:23.931Z,19.45
2019-05-15T12:24:31.606Z,19.23
2019-05-15T12:25:28.414Z,19.25
2019-05-15T12:26:24.039Z,19.21
2019-05-15T12:27:24.073Z,19.10
2019-05-15T12:28:24.108Z,19.13
2019-05-15T12:29:24.142Z,19.06
2019-05-15T12:30:24.173Z,19.06
2019-05-15T12:31:24.803Z,19.02
2019-05-15T12:32:33.081Z,18.86
2019-05-15T12:33:24.282Z,18.87
2019-05-15T12:34:24.315Z,18.87
2019-05-15T12:35:24.372Z,19.01
2019-05-15T12:37:24.425Z,18.89
2019-05-15T12:38:24.478Z,18.93
2019-05-15T12:39:25.997Z,18.87
2019-05-15T12:39:27.156Z,18.83
2019-05-15T12:59:40.751Z,18.62
2019-05-15T13:00:25.242Z,18.62
2019-05-15T13:01:25.273Z,18.60
2019-05-15T13:02:25.297Z,18.59
2019-05-15T13:03:25.335Z,18.51
2019-05-15T13:04:25.370Z,18.46
2019-05-15T13:05:25.407Z,18.41
2019-05-15T13:06:28.317Z,18.39
2019-05-15T13:07:25.470Z,18.36
2019-05-15T13:08:25.506Z,18.32
2019-05-15T13:09:27.600Z,18.29
2019-05-15T13:10:25.574Z,18.19
2019-05-15T13:11:25.614Z,18.10
2019-05-15T13:12:25.644Z,18.07
2019-05-15T13:13:25.693Z,17.96
2019-05-15T13:14:28.197Z,17.99
2019-05-15T13:15:28.045Z,17.98
2019-05-15T13:16:28.015Z,17.95
2019-05-15T13:17:25.820Z,17.98
2019-05-15T13:18:25.865Z,17.92
2019-05-15T13:19:28.349Z,17.96
2019-05-15T13:20:25.926Z,17.95
2019-05-15T13:21:25.960Z,17.84
2019-05-15T13:22:28.020Z,17.79
2019-05-15T13:23:28.305Z,17.79
2019-05-15T13:24:28.333Z,17.71
2019-05-15T13:25:27.999Z,17.66
2019-05-15T13:26:27.095Z,17.66
2019-05-15T13:27:26.172Z,17.62
2019-05-15T13:28:28.776Z,17.62
2019-05-15T13:29:28.747Z,17.60
2019-05-15T13:30:26.269Z,17.53
2019-05-15T13:31:28.386Z,17.49
2019-05-15T13:32:28.558Z,17.47
2019-05-15T13:33:26.375Z,17.43
2019-05-15T13:34:26.406Z,17.46
2019-05-15T13:35:28.420Z,17.33
2019-05-15T13:36:28.729Z,17.36
2019-05-15T13:37:30.497Z,17.33
2019-05-15T13:38:28.584Z,17.21
2019-05-15T13:39:28.389Z,17.17
2019-05-15T13:40:36.984Z,17.18
2019-05-15T13:41:28.201Z,17.06
2019-05-15T13:42:28.063Z,17.02
2019-05-15T13:43:28.798Z,17.03
2019-05-15T13:44:29.156Z,16.92
2019-05-15T13:45:28.795Z,16.92
2019-05-15T13:46:29.100Z,16.87
2019-05-15T13:47:28.180Z,16.87
2019-05-15T13:48:29.242Z,16.77
2019-05-15T13:49:28.115Z,16.73
2019-05-15T13:50:28.519Z,16.70
2019-05-15T13:51:29.071Z,16.67
2019-05-15T13:52:28.283Z,16.62
2019-05-15T13:53:27.960Z,16.54
2019-05-15T13:54:28.660Z,16.52
2019-05-15T13:55:35.122Z,16.52
2019-05-15T13:56:28.985Z,16.48
2019-05-15T13:57:29.767Z,16.40
2019-05-15T13:58:28.252Z,16.30
2019-05-15T13:59:28.601Z,16.26
2019-05-15T14:00:28.923Z,16.18
2019-05-15T14:01:28.708Z,16.18
2019-05-15T14:02:28.086Z,16.14
2019-05-15T14:03:28.471Z,16.06
2019-05-15T14:04:29.878Z,16.01
2019-05-15T14:05:29.672Z,15.99
2019-05-15T14:06:28.667Z,15.96
2019-05-15T14:07:33.102Z,15.91
2019-05-15T14:08:28.755Z,15.81
2019-05-15T14:09:33.746Z,15.73
2019-05-15T14:10:28.564Z,15.68
2019-05-15T14:11:31.128Z,15.59
2019-05-15T14:12:27.786Z,15.53
2019-05-15T14:13:28.743Z,15.56
2019-05-15T14:14:28.683Z,15.58
2019-05-15T14:15:27.807Z,15.64
2019-05-15T14:16:28.349Z,15.49
2019-05-15T14:17:28.318Z,15.52
2019-05-15T14:18:28.713Z,15.43
2019-05-15T14:19:28.091Z,15.46
2019-05-15T14:20:27.972Z,15.51
2019-05-15T14:21:28.492Z,15.49
2019-05-15T14:22:28.037Z,15.51
2019-05-15T14:23:29.539Z,15.43
2019-05-15T14:24:28.108Z,15.44
2019-05-15T14:25:28.196Z,15.49
2019-05-15T14:26:28.171Z,15.46
2019-05-15T14:27:29.661Z,15.44
2019-05-15T14:28:28.511Z,15.51
2019-05-15T14:29:29.167Z,15.53
2019-05-15T14:30:29.330Z,15.43
2019-05-15T14:31:28.685Z,15.43